AirNav   Air Wisconsin Up To $57,000 Bonus
 
 1412 users online  

0TS9 McClellan Creek Airport
McLean, Texas, USA

GOING TO MCLEAN?


FAA INFORMATION EFFECTIVE 07 NOVEMBER 2019

Location

FAA Identifier: 0TS9
Lat/Long: 35-20-24.3800N 100-37-46.4700W
35-20.406333N 100-37.774500W
35.3401056,-100.6295750
(estimated)
Elevation: 2796 ft. / 852 m
From city: 7 miles NNW of MCLEAN, TX
Time zone: UTC -6 (UTC -5 during Daylight Saving Time)
Zip code: 79057

Airport Operations

Airport use: Private use. Permission required prior to landing
Activation date: 10/2016
Control tower: no
ARTCC: ALBUQUERQUE CENTER
FSS: FORT WORTH FLIGHT SERVICE STATION
Attendance: 
Segmented circle: no

Airport Services

Runway Information

Runway 18/36

Dimensions: 1407 x 75 ft. / 429 x 23 m
Surface: turf, in good condition
RUNWAY 18  RUNWAY 36
Traffic pattern: leftleft

Airport Ownership and Management from official FAA records

Ownership: Privately-owned
Owner: RAYMOND HENRY
PO BOX 115
LEFORS, TX 79054
Phone 806-669-4690
Manager: RAYMOND HENRY
PO BOX 115
LEFORS, TX 79054
Phone 806-669-4690

Additional Remarks

FOR CD CTC ALBUQUERQUE ARTCC AT 505-856-4861.
(CONTACT PHONE NR) RONFERNUIK@HOTMAIL.COM

Instrument Procedures

There are no published instrument procedures at 0TS9.

Some nearby airports with instrument procedures:

T59 - Wheeler Municipal Airport (22 nm E)
KPPA - Perry Lefors Field Airport (24 nm NW)
KHHF - Hemphill County Airport (35 nm N)
T45 - Panhandle-Carson County Airport (36 nm W)
KBGD - Hutchinson County Airport (43 nm NW)
 
Loc | Ops | Rwys | IFR | FBO | Links
Com | Nav | Svcs | Stats | Notes

AirBoss

 
Aerial photo
No photo
 
Airport distance calculator
Flying to McClellan Creek Airport? Find the distance to fly.

From to 0TS9

Sunrise and sunset
Times for 18-Nov-2019
 Local
(UTC-6)
 Zulu
(UTC)
Morning civil twilight06:5512:55
Sunrise07:2213:22
Sunset17:3423:34
Evening civil twilight18:0100:01

Current date and time
Zulu (UTC)  18-Nov-2019 18:03:14
Local (UTC-6)  18-Nov-2019 12:03:14
 
METAR
KPPA 
20nm NW 
181755Z AUTO 34009KT 10SM CLR 20/01 A2996 RMK AO2 T01980008 10198 20049
KHHF 
35nm N 
181755Z AUTO 30006KT 10SM CLR 20/03 A2992 RMK AO2 T01970026 10197 21007
KBPC 
38nm NW 
181755Z AUTO 32003KT 10SM CLR 19/00 A2995 RMK AO2
TAF
NOTAMs
Click for the latest NOTAMs
NOTAMs are issued by the DoD/FAA and will open in a separate window not controlled by AirNav.

 

 
 

Would you like to see your business listed on this page?

 If your business provides an interesting product or service to pilots, flight crews, aircraft, or users of the McClellan Creek Airport, you should consider listing it here.  To start the listing process, click on the button below
 
Add a business
 

Other Pages about McClellan Creek Airport

Update a link
 
Copyright © AirNav, LLC. All rights reserved. Privacy Policy  Contact